首页
METAR-TAF:

METAR-TAF

机场 :

Qaisumah, 沙特阿拉伯

纬度: 28-19N, 经度: 046-07E, 海拔: 358米

当前天气观测

该预报发布于1小时和9分钟前的08:00 UTC
静风
温度 36°C
湿度 33%
气压 1018 hPa
能见度10公里或以上
1500米以下无云,无积雨云

METAR: OEPA 170800Z 00000KT CAVOK 36/17 Q1018 NOSIG

时间: 12:09 (09:09 UTC)

预报

该预报发布于10小时和9分钟前的23:00 UTC
预报有效从17日的 00点(UTC)到 18日的 06点(UTC)
风速3节,风向多变
能見度: 7000
少量云层高于4000英尺
散云层高于10000英尺
成为
从 17日的 08点(UTC)到 17日的 10点(UTC)
风速13节,风向

TAF: OEPA 162300Z 1700/1806 VRB03KT 7000 FEW040 SCT100 BECMG 1708/1710 36013KT

超过4000个机场的气象观测和天气预报(METAR&TAF报告)。

可查询的气象台以黄色和红色小点在地图上表示。

将鼠标移到小点上方,可查看气象台名称。

然后点击查看天气观测和预报。

如需切换地图:点击带黑十字的绿色按钮放大地图;点击带横线的绿色按钮缩小地图;或者点击绿色箭头查看邻近地区的地图。


METAR-TAF: